KBGR

Bangor International

Airport
ICAO code
KBGR
Summary
ICAO Region
NAM
ICAO Territory
Location

Bangor, Maine,

Coordinates
44° 48' 27" N , 68° 49' 41" W
KCC
Airport CFIT
Altimeter Temperature Error Correction
Airport WX
Cumulonimbus
Metar
Observation
KBGR 271953Z 23007KT 10SM FEW080 M01/M12 A3006 RMK AO2 SLP183 T10061117
Station
Bangor, Bangor International Airport
Date/Time
2023-01-27 19:53:00
Wind direction
230°
Wind speed
07 kts
Lowest cloud amount
few clouds
Temperature
-0.6°C
Dew point
-11.7°C
Humidity
42%
Weather condition
n/a

Description

International airport serving Bangor, Maine.

Climatology

Humid Continental climate (Köppen climate classification Dfb) - Variable weather patterns and a large seasonal temperature variance. Summers are often warm and humid with frequent thunderstorms and winters can be very cold with frequent snowfall and persistent snow cover.

Airport map

Aerial View

SKYbrary Partners:

Safety knowledge contributed by: